Time;durP1;ratioP1;P1;durP2;ratioP2;P2;SDS_P1;SDS_P2;PMS_P1;PMS_P2;Temp;Humidity;BMP_temperature;BMP_pressure;BME280_temperature;BME280_humidity;BME280_pressure;Samples;Min_cycle;Max_cycle;Signal;HPM_P1;HPM_P2
2022/08/11 00:01:12;;;;;;;11.63;7.68;;;18.40;99.90;;;;;;5073559;28;20044;-76
2022/08/11 00:03:45;;;;;;;10.25;7.82;;;18.40;99.90;;;;;;5055045;28;20075;-77
2022/08/11 00:06:14;;;;;;;11.05;7.90;;;18.40;99.90;;;;;;5054435;28;20067;-76
2022/08/11 00:08:44;;;;;;;10.02;7.18;;;18.50;99.90;;;;;;5053121;28;20041;-76
2022/08/11 00:11:15;;;;;;;13.13;7.80;;;18.50;99.90;;;;;;5035445;28;20049;-75
2022/08/11 00:13:45;;;;;;;12.45;8.25;;;18.50;99.90;;;;;;5035356;28;20057;-76
2022/08/11 00:16:15;;;;;;;14.27;8.80;;;18.50;99.90;;;;;;5053320;28;20041;-77
2022/08/11 00:18:44;;;;;;;11.32;8.48;;;18.50;99.90;;;;;;5052645;28;20041;-76
2022/08/11 00:21:13;;;;;;;14.65;8.38;;;18.50;99.90;;;;;;5031575;28;20067;-76
2022/08/11 00:23:45;;;;;;;16.55;8.60;;;18.60;99.90;;;;;;5015121;28;20050;-75
2022/08/11 00:26:13;;;;;;;10.32;7.82;;;18.60;99.90;;;;;;5015395;28;20042;-76
2022/08/11 00:28:42;;;;;;;12.90;8.55;;;18.60;99.90;;;;;;5039813;28;20045;-76
2022/08/11 00:31:22;;;;;;;10.65;7.88;;;18.60;99.90;;;;;;5057748;28;20045;-76
2022/08/11 00:33:51;;;;;;;12.65;7.65;;;18.60;99.90;;;;;;5072001;28;20041;-75
2022/08/11 00:36:20;;;;;;;9.70;7.60;;;18.50;99.90;;;;;;5071668;28;20041;-75
2022/08/11 00:38:52;;;;;;;10.65;6.60;;;18.40;99.90;;;;;;5074052;28;20555;-76
2022/08/11 00:41:39;;;;;;;14.43;6.78;;;18.30;99.90;;;;;;5055206;28;20052;-75
2022/08/11 00:44:38;;;;;;;10.25;7.35;;;18.30;99.90;;;;;;5072296;28;20053;-75
2022/08/11 00:47:18;;;;;;;15.18;7.30;;;18.20;99.90;;;;;;5072547;28;20465;-75
2022/08/11 00:50:10;;;;;;;11.82;6.40;;;18.20;99.90;;;;;;5072829;28;20061;-75
2022/08/11 00:52:50;;;;;;;10.25;6.57;;;18.10;99.90;;;;;;5072633;28;20050;-75
2022/08/11 00:55:58;;;;;;;11.48;6.20;;;18.10;99.90;;;;;;5065601;28;20112;-75
2022/08/11 00:58:59;;;;;;;12.63;6.72;;;18.10;99.90;;;;;;5049295;28;20450;-75
2022/08/11 01:01:41;;;;;;;7.97;6.75;;;18.10;99.90;;;;;;5029251;28;20465;-76
2022/08/11 01:04:45;;;;;;;16.50;8.02;;;18.10;99.90;;;;;;5052526;28;20106;-76
2022/08/11 01:07:42;;;;;;;14.95;8.30;;;18.10;99.90;;;;;;5047763;28;20057;-75
2022/08/11 01:10:41;;;;;;;15.27;9.13;;;18.10;99.90;;;;;;5056321;28;20484;-75
2022/08/11 01:13:18;;;;;;;20.85;10.40;;;18.10;99.90;;;;;;5056048;28;20102;-75
2022/08/11 01:16:13;;;;;;;16.73;9.45;;;18.10;99.90;;;;;;5056171;28;20040;-76
2022/08/11 01:19:04;;;;;;;20.25;11.45;;;18.10;99.90;;;;;;5049962;28;20061;-76
2022/08/11 01:22:16;;;;;;;24.38;11.02;;;18.10;99.90;;;;;;5056124;28;20091;-75
2022/08/11 01:25:28;;;;;;;21.42;10.77;;;18.10;99.90;;;;;;5038214;28;20052;-76
2022/08/11 01:28:49;;;;;;;22.33;11.43;;;18.10;99.90;;;;;;5057284;28;20037;-76
2022/08/11 01:31:55;;;;;;;26.45;13.10;;;18.10;99.90;;;;;;5040182;28;20091;-75
2022/08/11 01:35:17;;;;;;;21.37;12.03;;;18.10;99.90;;;;;;5042659;28;20049;-75
2022/08/11 01:38:20;;;;;;;27.58;12.57;;;18.00;99.90;;;;;;5037930;28;20049;-75
2022/08/11 01:40:58;;;;;;;25.98;13.25;;;18.00;99.90;;;;;;5055833;28;20059;-75
2022/08/11 01:46:53;;;;;;;23.85;14.40;;;17.90;99.90;;;;;;5075641;28;20067;-74
2022/08/11 01:49:28;;;;;;;24.83;13.63;;;17.90;99.90;;;;;;5075349;28;20117;-76
2022/08/11 01:52:14;;;;;;;23.60;12.55;;;17.90;99.90;;;;;;5075630;28;20044;-75
2022/08/11 01:54:48;;;;;;;22.63;12.85;;;17.80;99.90;;;;;;5071281;28;20094;-75
2022/08/11 01:57:31;;;;;;;24.58;13.15;;;17.80;99.90;;;;;;5038319;28;20083;-78
2022/08/11 02:00:07;;;;;;;23.58;12.27;;;17.70;99.90;;;;;;5036843;28;20053;-75
2022/08/11 02:02:52;;;;;;;23.90;12.10;;;17.70;99.90;;;;;;5018378;28;20077;-77
2022/08/11 02:05:59;;;;;;;19.05;11.38;;;17.60;99.90;;;;;;5035940;28;20393;-78
2022/08/11 02:08:42;;;;;;;23.00;11.65;;;17.60;99.90;;;;;;4955790;29;20506;-77
2022/08/11 02:11:31;;;;;;;21.45;11.35;;;17.60;99.90;;;;;;5030482;28;20505;-76
2022/08/11 02:14:10;;;;;;;18.35;10.15;;;17.60;99.90;;;;;;5031148;28;20079;-76
2022/08/11 02:16:52;;;;;;;24.85;10.75;;;17.50;99.90;;;;;;5055826;28;20045;-76
2022/08/11 02:25:19;;;;;;;17.77;9.40;;;17.40;99.90;;;;;;5050548;28;20040;-77
2022/08/11 02:27:53;;;;;;;14.18;8.52;;;17.40;99.90;;;;;;5044449;28;20094;-77
2022/08/11 02:30:25;;;;;;;16.65;9.18;;;17.40;99.90;;;;;;5076264;28;20044;-77
2022/08/11 02:33:26;;;;;;;15.45;9.10;;;17.40;99.90;;;;;;5057577;28;20094;-76
2022/08/11 02:36:09;;;;;;;16.70;8.95;;;17.40;99.90;;;;;;5057778;28;20041;-77
2022/08/11 02:38:45;;;;;;;15.82;9.20;;;17.40;99.90;;;;;;5056876;28;20044;-76
2022/08/11 02:44:16;;;;;;;12.18;8.60;;;17.40;99.90;;;;;;5039525;28;20295;-76
2022/08/11 02:46:55;;;;;;;16.48;9.02;;;17.40;99.90;;;;;;5054885;28;20041;-77
2022/08/11 02:49:53;;;;;;;14.40;8.93;;;17.40;99.90;;;;;;5055154;28;20064;-77
2022/08/11 02:52:29;;;;;;;12.70;8.82;;;17.40;99.90;;;;;;5055523;28;20041;-78
2022/08/11 02:55:20;;;;;;;13.63;9.55;;;17.40;99.90;;;;;;5037577;28;20041;-77
2022/08/11 02:57:54;;;;;;;16.85;9.63;;;17.40;99.90;;;;;;5052275;28;20086;-78
2022/08/11 03:00:22;;;;;;;17.88;9.98;;;17.40;99.90;;;;;;5055447;28;20167;-78
2022/08/11 03:03:01;;;;;;;16.20;9.38;;;17.40;99.90;;;;;;5047681;28;20103;-79
2022/08/11 03:05:42;;;;;;;13.15;9.65;;;17.40;99.90;;;;;;5037163;28;20566;-76
2022/08/11 03:08:23;;;;;;;14.40;9.15;;;17.40;99.90;;;;;;5037873;28;20072;-74
2022/08/11 03:16:58;;;;;;;16.40;8.38;;;17.40;99.90;;;;;;5074460;28;20048;-76
2022/08/11 03:19:34;;;;;;;11.57;7.53;;;17.50;99.90;;;;;;5057625;28;20091;-76
2022/08/11 03:22:12;;;;;;;12.82;7.60;;;17.50;99.90;;;;;;5038397;28;20057;-76
2022/08/11 03:24:58;;;;;;;13.73;7.13;;;17.50;99.90;;;;;;5057503;28;20068;-74
2022/08/11 03:27:41;;;;;;;11.02;7.40;;;17.50;99.90;;;;;;5058582;28;20041;-75
2022/08/11 03:30:15;;;;;;;10.00;6.95;;;17.50;99.90;;;;;;5076575;28;20436;-77
2022/08/11 03:35:41;;;;;;;8.68;6.57;;;17.50;99.90;;;;;;5075137;28;20546;-75
2022/08/11 03:38:14;;;;;;;15.27;7.43;;;17.50;99.90;;;;;;5075207;28;20044;-76
2022/08/11 03:43:55;;;;;;;11.07;7.22;;;17.50;99.90;;;;;;5067106;28;20108;-75
2022/08/11 03:46:47;;;;;;;12.88;7.55;;;17.50;99.90;;;;;;5053829;28;20044;-76
2022/08/11 03:49:28;;;;;;;20.10;9.15;;;17.60;99.90;;;;;;5045506;23;20072;-75
2022/08/11 03:52:05;;;;;;;19.33;9.55;;;17.50;99.90;;;;;;5032507;28;20053;-77
2022/08/11 03:54:47;;;;;;;20.27;9.32;;;17.50;99.90;;;;;;5034582;28;20488;-77
2022/08/11 03:57:55;;;;;;;20.83;9.75;;;17.50;99.90;;;;;;5053604;28;20106;-76
2022/08/11 04:00:38;;;;;;;17.40;9.25;;;17.40;99.90;;;;;;5053432;28;20087;-76
2022/08/11 04:03:37;;;;;;;26.90;10.40;;;17.40;99.90;;;;;;5035361;28;20463;-76
2022/08/11 04:06:33;;;;;;;31.35;11.40;;;17.50;99.90;;;;;;5053164;28;20048;-76
2022/08/11 04:09:36;;;;;;;26.27;11.35;;;17.50;99.90;;;;;;5047428;28;20051;-76
2022/08/11 04:12:22;;;;;;;24.25;11.07;;;17.60;99.90;;;;;;5023616;28;20111;-76
2022/08/11 04:18:39;;;;;;;29.92;12.85;;;17.60;99.90;;;;;;5052891;28;20044;-76
2022/08/11 04:21:44;;;;;;;27.73;12.77;;;17.60;99.90;;;;;;5052828;28;20049;-76
2022/08/11 04:24:39;;;;;;;25.67;12.38;;;17.60;99.90;;;;;;5054472;28;20033;-76
2022/08/11 04:27:43;;;;;;;28.95;13.02;;;17.60;99.90;;;;;;5052121;28;20049;-76
2022/08/11 04:30:16;;;;;;;27.55;13.27;;;17.60;99.90;;;;;;5068322;28;20054;-76
2022/08/11 04:33:09;;;;;;;30.42;12.82;;;17.60;99.90;;;;;;5075646;28;20040;-76
2022/08/11 04:35:46;;;;;;;33.80;15.05;;;17.70;99.90;;;;;;5063364;28;20042;-75
2022/08/11 04:38:46;;;;;;;38.05;14.48;;;17.70;99.90;;;;;;5051655;28;20041;-75
2022/08/11 04:45:09;;;;;;;30.02;13.35;;;17.80;99.90;;;;;;5056197;28;20071;-76
2022/08/11 05:03:28;;;;;;;18.38;12.82;;;18.10;99.90;;;;;;5047654;28;20041;-77
2022/08/11 05:06:28;;;;;;;26.60;15.07;;;18.10;99.90;;;;;;5055595;28;20053;-76
2022/08/11 05:09:35;;;;;;;24.00;13.13;;;18.20;99.90;;;;;;5055002;28;20522;-77
2022/08/11 05:12:09;;;;;;;;;;;18.30;99.90;;;;;;5057266;28;20088;-76
2022/08/11 05:37:19;;;;;;;44.47;22.00;;;19.00;99.90;;;;;;5054494;28;20037;-77
2022/08/11 05:56:44;;;;;;;47.38;27.30;;;19.30;99.90;;;;;;5052210;28;20044;-77
2022/08/11 05:59:19;;;;;;;56.10;33.10;;;19.40;99.90;;;;;;5054060;28;20147;-77
2022/08/11 06:01:47;;;;;;;50.05;28.80;;;19.50;99.90;;;;;;5055304;28;20037;-77
2022/08/11 06:04:19;;;;;;;54.50;31.00;;;19.50;99.90;;;;;;5054829;28;20043;-77
2022/08/11 06:06:51;;;;;;;44.88;28.80;;;19.50;99.90;;;;;;5055030;28;20099;-77
2022/08/11 06:09:27;;;;;;;51.60;29.05;;;19.50;99.90;;;;;;5053715;28;20131;-77
2022/08/11 06:11:59;;;;;;;50.20;30.67;;;19.40;99.90;;;;;;5054265;28;20041;-77
2022/08/11 06:14:28;;;;;;;53.03;33.72;;;19.50;99.90;;;;;;5054767;28;20491;-76
2022/08/11 06:17:01;;;;;;;49.83;32.65;;;19.50;99.90;;;;;;5053508;28;20045;-79
2022/08/11 06:19:34;;;;;;;57.35;36.88;;;19.40;99.90;;;;;;5054165;28;20045;-76
2022/08/11 06:22:03;;;;;;;56.65;35.05;;;19.50;99.90;;;;;;5055005;28;20106;-76
2022/08/11 06:24:32;;;;;;;48.13;31.30;;;19.60;99.90;;;;;;5054704;28;20049;-78
2022/08/11 06:27:01;;;;;;;55.38;33.85;;;19.70;99.90;;;;;;5056082;28;20047;-77
2022/08/11 06:29:31;;;;;;;53.90;34.47;;;19.60;99.90;;;;;;5056416;28;20451;-77
2022/08/11 06:32:01;;;;;;;52.08;33.63;;;19.80;99.90;;;;;;5055032;28;20439;-78
2022/08/11 06:34:40;;;;;;;53.72;34.53;;;19.80;99.90;;;;;;5052837;28;20495;-77
2022/08/11 06:37:25;;;;;;;58.83;33.28;;;20.00;99.90;;;;;;5053170;28;20049;-77
2022/08/11 06:40:05;;;;;;;60.92;35.13;;;20.10;99.90;;;;;;5054472;28;20067;-77
2022/08/11 06:42:50;;;;;;;65.40;35.60;;;20.00;99.90;;;;;;5054030;28;20061;-77
2022/08/11 06:45:28;;;;;;;53.35;35.00;;;19.90;99.90;;;;;;5059218;28;20037;-77
2022/08/11 06:47:59;;;;;;;57.28;36.40;;;19.90;99.90;;;;;;5057534;28;20480;-78
2022/08/11 06:53:17;;;;;;;68.45;41.08;;;20.30;99.90;;;;;;5056175;28;20063;-78
2022/08/11 07:01:36;;;;;;;58.85;37.20;;;21.30;99.90;;;;;;5057514;28;20057;-78
2022/08/11 07:04:07;;;;;;;67.40;41.58;;;21.70;99.90;;;;;;5060313;28;20037;-72
2022/08/11 07:15:40;;;;;;;66.30;38.83;;;22.10;99.90;;;;;;5053167;28;20041;-73
2022/08/11 07:15:42;;;;;;;61.80;39.58;;;22.70;99.90;;;;;;5054061;28;20044;-74
2022/08/11 07:29:37;;;;;;;69.28;40.60;;;22.60;99.90;;;;;;5061403;28;20407;-74
2022/08/11 07:32:18;;;;;;;67.05;40.83;;;22.90;99.90;;;;;;5073179;28;20040;-74
2022/08/11 07:34:53;;;;;;;65.97;38.60;;;22.90;99.90;;;;;;5071850;28;20053;-74
2022/08/11 07:37:23;;;;;;;72.85;39.72;;;22.70;99.90;;;;;;5073799;28;20052;-73
2022/08/11 07:39:52;;;;;;;64.93;39.15;;;22.60;99.90;;;;;;5073328;28;20040;-74
2022/08/11 07:42:27;;;;;;;68.97;37.72;;;22.80;99.90;;;;;;5073318;28;20496;-74
2022/08/11 07:53:27;;;;;;;53.08;32.92;;;22.80;99.90;;;;;;5056352;28;20052;-73
2022/08/11 07:55:57;;;;;;;51.75;30.50;;;23.10;99.90;;;;;;5060148;28;20052;-73
2022/08/11 08:17:57;;;;;;;47.88;27.25;;;24.30;99.90;;;;;;5045662;28;20055;-74
2022/08/11 08:20:28;;;;;;;46.15;27.15;;;24.30;99.90;;;;;;5057116;28;20066;-74
2022/08/11 08:22:59;;;;;;;41.90;26.45;;;24.20;99.90;;;;;;5048343;28;20095;-74
2022/08/11 08:25:28;;;;;;;46.80;27.98;;;24.30;99.90;;;;;;5055390;28;20446;-73
2022/08/11 08:27:57;;;;;;;51.70;30.80;;;24.10;99.90;;;;;;5055930;28;20049;-74
2022/08/11 08:33:14;;;;;;;34.25;21.75;;;24.00;99.90;;;;;;5076863;28;20115;-74
2022/08/11 08:35:44;;;;;;;30.45;20.85;;;24.10;99.90;;;;;;5077633;28;20068;-74
2022/08/11 08:38:14;;;;;;;33.72;22.63;;;24.30;99.90;;;;;;5077749;28;20067;-73
2022/08/11 08:40:45;;;;;;;33.28;19.58;;;24.50;99.90;;;;;;5078867;28;20047;-73
2022/08/11 08:43:17;;;;;;;28.58;18.10;;;24.60;99.90;;;;;;5077403;28;20063;-74
2022/08/11 08:45:45;;;;;;;33.13;20.23;;;24.50;99.90;;;;;;5077129;28;20154;-74
2022/08/11 08:48:15;;;;;;;27.73;17.02;;;24.80;99.90;;;;;;5077936;28;20116;-74
2022/08/11 08:53:46;;;;;;;29.23;18.40;;;24.80;99.90;;;;;;5076032;28;20068;-74
2022/08/11 08:56:13;;;;;;;35.28;20.77;;;25.10;99.90;;;;;;5062076;28;20103;-74
2022/08/11 08:58:42;;;;;;;26.52;15.10;;;25.50;99.90;;;;;;5056507;28;20041;-74
2022/08/11 09:01:11;;;;;;;26.75;15.23;;;25.60;99.90;;;;;;5057241;28;20545;-74
2022/08/11 09:03:39;;;;;;;28.80;16.80;;;25.60;99.90;;;;;;5056419;28;20041;-75
2022/08/11 09:06:07;;;;;;;25.60;16.05;;;25.90;99.90;;;;;;5038135;28;20044;-74
2022/08/11 09:08:35;;;;;;;27.75;17.00;;;26.00;99.90;;;;;;5038074;28;20049;-74
2022/08/11 09:13:52;;;;;;;13.65;10.07;;;26.30;99.90;;;;;;5057122;28;20047;-74
2022/08/11 09:16:23;;;;;;;12.52;9.40;;;26.60;99.90;;;;;;5056687;28;20136;-74
2022/08/11 09:18:51;;;;;;;13.35;9.55;;;26.80;99.90;;;;;;5056521;28;20040;-74
2022/08/11 09:21:21;;;;;;;14.73;9.57;;;26.80;99.90;;;;;;5056174;28;20048;-74
2022/08/11 09:29:22;;;;;;;24.45;14.05;;;26.90;99.90;;;;;;5063395;28;20041;-75
2022/08/11 09:31:50;;;;;;;15.63;10.75;;;27.00;99.90;;;;;;5074760;28;20041;-74
2022/08/11 09:34:18;;;;;;;22.55;14.13;;;27.00;99.90;;;;;;5075501;28;20098;-75
2022/08/11 09:42:21;;;;;;;14.77;11.00;;;26.50;99.90;;;;;;5076050;28;20044;-74
2022/08/11 09:44:48;;;;;;;18.70;10.50;;;26.10;99.90;;;;;;5076271;28;20048;-75
2022/08/11 09:47:23;;;;;;;16.85;9.05;;;25.80;99.90;;;;;;5075423;28;20090;-74
2022/08/11 09:49:53;;;;;;;12.55;8.77;;;25.90;99.90;;;;;;5079337;23;20073;-75
2022/08/11 09:52:23;;;;;;;11.27;7.80;;;26.20;99.90;;;;;;5034677;28;20072;-76
2022/08/11 09:54:52;;;;;;;10.45;7.20;;;26.40;99.90;;;;;;5041949;28;20045;-74
2022/08/11 10:00:10;;;;;;;11.07;6.50;;;26.40;99.90;;;;;;5061606;28;20048;-77
2022/08/11 10:02:43;;;;;;;9.75;3.20;;;26.60;99.90;;;;;;5058689;28;20049;-76
2022/08/11 10:08:00;;;;;;;8.30;2.85;;;27.00;79.40;;;;;;5059553;28;20128;-76
2022/08/11 10:10:28;;;;;;;9.95;4.82;;;27.00;73.80;;;;;;5041560;28;20107;-77
2022/08/11 10:13:03;;;;;;;9.52;5.28;;;27.00;71.10;;;;;;5040761;28;20106;-76
2022/08/11 10:15:33;;;;;;;7.40;2.80;;;27.20;68.40;;;;;;5057480;28;20106;-76
2022/08/11 10:20:53;;;;;;;7.22;4.50;;;27.50;64.40;;;;;;5057625;28;20047;-76
2022/08/11 10:28:54;;;;;;;3.50;1.73;;;27.60;58.40;;;;;;5055640;28;20040;-77
2022/08/11 10:34:09;;;;;;;8.38;6.75;;;27.20;56.90;;;;;;5039397;28;20049;-77
2022/08/11 10:36:43;;;;;;;2.17;1.38;;;27.40;56.90;;;;;;5057668;28;20484;-76
2022/08/11 10:39:16;;;;;;;1.23;0.88;;;27.30;53.30;;;;;;5059826;28;20033;-77
2022/08/11 10:44:36;;;;;;;5.63;1.80;;;26.80;52.20;;;;;;5058124;28;20487;-75
2022/08/11 10:51:11;;;;;;;2.35;1.20;;;26.80;49.10;;;;;;5039933;28;20041;-74
2022/08/11 11:00:57;;;;;;;3.83;1.10;;;26.70;44.50;;;;;;5056888;28;20086;-74
2022/08/11 11:03:27;;;;;;;4.03;1.27;;;26.60;45.70;;;;;;5038940;28;20049;-74
2022/08/11 11:06:02;;;;;;;2.10;1.13;;;26.60;44.90;;;;;;5056084;28;20041;-74
2022/08/11 11:11:18;;;;;;;2.55;1.10;;;26.60;45.60;;;;;;5056639;28;20045;-74
2022/08/11 11:19:24;;;;;;;4.45;1.38;;;26.50;49.40;;;;;;5037468;28;20060;-74
2022/08/11 11:22:36;;;;;;;1.58;1.08;;;26.50;48.80;;;;;;5036363;28;20095;-74
2022/08/11 11:24:54;;;;;;;3.22;1.33;;;26.70;48.30;;;;;;5038753;28;20095;-74
2022/08/11 11:27:30;;;;;;;3.67;1.35;;;26.80;48.10;;;;;;5035623;28;20451;-75
2022/08/11 11:30:05;;;;;;;3.42;1.13;;;26.70;45.30;;;;;;5031171;28;20045;-74
2022/08/11 11:32:44;;;;;;;1.52;0.98;;;26.70;44.00;;;;;;5057906;28;20086;-73
2022/08/11 11:35:19;;;;;;;3.13;1.40;;;26.60;45.90;;;;;;5057002;28;20106;-74
2022/08/11 11:37:49;;;;;;;5.60;1.70;;;26.50;45.80;;;;;;5056262;28;20534;-74
2022/08/11 11:40:20;;;;;;;2.45;1.20;;;26.50;47.50;;;;;;5056978;28;20037;-74
2022/08/11 11:42:49;;;;;;;3.35;1.73;;;26.30;48.70;;;;;;5038526;28;20056;-74
2022/08/11 11:45:18;;;;;;;2.15;1.17;;;26.30;50.50;;;;;;5062756;28;20045;-74
2022/08/11 11:47:51;;;;;;;1.92;1.08;;;26.40;48.30;;;;;;5055251;28;20045;-73
2022/08/11 11:50:24;;;;;;;3.60;1.35;;;26.30;47.10;;;;;;5055474;28;20543;-74
2022/08/11 11:52:54;;;;;;;3.15;1.30;;;26.40;50.30;;;;;;5035947;28;20072;-74
2022/08/11 11:55:24;;;;;;;2.22;1.30;;;26.40;52.30;;;;;;5037273;28;20397;-74
2022/08/11 12:03:26;;;;;;;4.50;1.88;;;26.70;55.20;;;;;;5056243;28;20066;-74
2022/08/11 12:05:54;;;;;;;4.72;1.80;;;26.60;55.00;;;;;;5038266;28;20045;-74
2022/08/11 12:08:24;;;;;;;3.97;1.75;;;26.60;54.00;;;;;;5056344;28;20048;-74
2022/08/11 12:13:39;;;;;;;2.33;1.63;;;26.40;54.30;;;;;;5061201;28;20411;-73
2022/08/11 12:13:45;;;;;;;3.63;1.58;;;26.40;55.20;;;;;;5039373;28;20037;-74
2022/08/11 12:16:15;;;;;;;6.13;2.05;;;26.40;55.60;;;;;;5054919;28;20045;-74
2022/08/11 12:18:47;;;;;;;3.42;1.90;;;26.50;56.40;;;;;;5037144;28;20049;-74
2022/08/11 12:21:16;;;;;;;3.38;2.33;;;26.50;56.90;;;;;;5055658;28;20040;-74
2022/08/11 12:29:20;;;;;;;2.67;1.90;;;26.90;54.40;;;;;;5064250;28;20430;-82
2022/08/11 12:31:48;;;;;;;4.30;1.80;;;27.10;54.20;;;;;;5078883;28;20048;-77
2022/08/11 12:34:17;;;;;;;2.83;1.67;;;27.00;55.00;;;;;;5077188;28;20044;-77
2022/08/11 12:36:51;;;;;;;4.38;1.80;;;27.00;55.00;;;;;;5058226;28;20048;-77
2022/08/11 12:45:26;;;;;;;2.40;1.50;;;27.00;55.10;;;;;;5078467;28;20051;-80
2022/08/11 12:53:23;;;;;;;3.35;2.03;;;27.30;50.40;;;;;;5053363;28;20067;-83
2022/08/11 12:58:41;;;;;;;3.08;1.85;;;26.50;55.30;;;;;;5047801;28;20049;-78
2022/08/11 13:06:42;;;;;;;3.72;2.08;;;26.10;56.80;;;;;;5065306;28;20102;-80
2022/08/11 13:09:11;;;;;;;2.83;1.65;;;26.10;56.20;;;;;;5050148;28;20072;-79
2022/08/11 13:14:26;;;;;;;4.38;1.52;;;26.70;53.60;;;;;;5060605;28;20109;-78
2022/08/11 13:19:41;;;;;;;17.02;4.00;;;27.20;54.30;;;;;;5061161;28;20083;-79
2022/08/11 13:22:11;;;;;;;4.32;1.98;;;27.50;55.70;;;;;;5061147;28;20041;-77
2022/08/11 13:24:40;;;;;;;6.20;3.50;;;27.70;55.60;;;;;;5057804;28;20053;-78
2022/08/11 13:27:11;;;;;;;4.85;2.15;;;27.90;56.20;;;;;;5060073;28;20045;-79
2022/08/11 13:29:41;;;;;;;7.15;2.70;;;27.90;55.40;;;;;;5070256;28;20066;-77
2022/08/11 13:32:10;;;;;;;3.40;2.33;;;27.70;56.00;;;;;;5063248;28;20075;-79
2022/08/11 13:34:41;;;;;;;3.28;2.60;;;27.40;56.90;;;;;;5061290;28;20048;-78
2022/08/11 13:37:11;;;;;;;4.20;2.20;;;27.60;57.80;;;;;;5060796;28;20071;-78
2022/08/11 13:39:46;;;;;;;6.65;2.28;;;27.50;58.10;;;;;;5061087;28;20122;-77
2022/08/11 13:42:15;;;;;;;4.82;2.33;;;27.40;57.80;;;;;;5079485;28;20040;-77
2022/08/11 13:44:43;;;;;;;3.53;1.80;;;27.50;58.90;;;;;;5061358;28;20048;-78
2022/08/11 13:47:13;;;;;;;5.63;2.25;;;27.50;57.40;;;;;;5072519;28;20049;-75
2022/08/11 13:49:42;;;;;;;3.20;2.22;;;27.20;57.80;;;;;;5041712;28;20045;-75
2022/08/11 13:52:16;;;;;;;3.90;2.10;;;26.90;58.50;;;;;;5059327;28;20061;-75
2022/08/11 13:54:46;;;;;;;4.97;2.20;;;26.60;58.80;;;;;;5043109;28;20091;-76
2022/08/11 13:57:17;;;;;;;3.55;2.67;;;26.40;58.50;;;;;;5047067;28;20500;-76
2022/08/11 13:59:46;;;;;;;6.05;2.40;;;26.40;58.30;;;;;;5060485;28;20056;-75
2022/08/11 14:02:17;;;;;;;9.00;4.18;;;26.60;58.10;;;;;;5049851;28;20052;-76
2022/08/11 14:04:50;;;;;;;8.00;4.28;;;26.70;57.50;;;;;;5066448;28;20079;-76
2022/08/11 14:07:25;;;;;;;3.85;2.15;;;26.90;57.40;;;;;;5062589;28;20044;-76
2022/08/11 14:09:56;;;;;;;3.10;2.10;;;27.10;56.50;;;;;;5061630;28;20127;-76
2022/08/11 14:15:18;;;;;;;5.28;2.78;;;27.00;57.40;;;;;;5061726;28;20075;-75
2022/08/11 14:17:51;;;;;;;6.72;3.17;;;27.20;57.70;;;;;;5042117;28;20064;-75
2022/08/11 14:20:21;;;;;;;5.82;2.60;;;27.20;57.90;;;;;;5058456;28;20090;-76
2022/08/11 14:22:51;;;;;;;4.55;2.65;;;27.30;56.70;;;;;;5044089;28;20106;-75
2022/08/11 14:25:18;;;;;;;6.65;4.25;;;27.40;55.70;;;;;;5061138;28;20045;-75
2022/08/11 14:27:48;;;;;;;4.65;2.38;;;27.30;55.90;;;;;;5057946;28;20056;-75
2022/08/11 14:32:58;;;;;;;3.72;2.47;;;27.10;54.80;;;;;;5080347;28;20127;-75
2022/08/11 14:35:27;;;;;;;3.42;2.10;;;27.10;54.90;;;;;;5059046;28;20048;-75
2022/08/11 14:37:57;;;;;;;8.30;3.00;;;27.20;54.20;;;;;;5056793;28;20449;-75
2022/08/11 14:48:51;;;;;;;5.80;2.45;;;27.10;53.40;;;;;;5058458;28;20087;-76
2022/08/11 14:51:21;;;;;;;6.40;3.45;;;27.20;53.20;;;;;;5044184;28;20069;-75
2022/08/11 14:56:34;;;;;;;4.53;2.55;;;27.20;53.10;;;;;;5041123;28;20577;-76
2022/08/11 14:56:41;;;;;;;4.15;2.35;;;27.20;52.20;;;;;;5064153;28;20083;-78
2022/08/11 14:59:09;;;;;;;5.43;2.47;;;27.30;51.70;;;;;;5059955;28;20071;-75
2022/08/11 15:04:23;;;;;;;4.97;2.97;;;27.30;51.30;;;;;;5057110;28;20029;-75
2022/08/11 15:06:52;;;;;;;3.92;2.08;;;27.30;51.70;;;;;;5022098;28;20041;-75
2022/08/11 15:09:21;;;;;;;3.55;1.75;;;27.30;51.40;;;;;;5021803;28;20049;-74
2022/08/11 15:17:18;;;;;;;2.47;1.65;;;27.40;52.70;;;;;;5052767;28;20052;-76
2022/08/11 15:25:15;;;;;;;4.00;1.77;;;26.90;53.30;;;;;;5073506;28;20047;-76
2022/08/11 15:38:58;;;;;;;3.17;2.00;;;26.40;53.90;;;;;;5067554;28;20298;-75
2022/08/11 15:47:07;;;;;;;5.18;2.55;;;25.90;54.60;;;;;;5040274;28;20069;-76
2022/08/11 15:49:39;;;;;;;4.97;2.65;;;25.80;55.00;;;;;;5045140;28;20037;-76
2022/08/11 15:52:10;;;;;;;5.13;2.83;;;25.90;55.20;;;;;;5024812;28;20057;-76
2022/08/11 15:54:41;;;;;;;10.85;2.60;;;25.90;55.10;;;;;;5062182;28;20116;-76
2022/08/11 16:04:09;;;;;;;5.50;2.47;;;26.10;55.00;;;;;;5035198;28;20083;-76
2022/08/11 16:05:35;;;;;;;4.35;2.30;;;26.10;54.00;;;;;;5036758;28;20053;-76
2022/08/11 16:08:03;;;;;;;6.00;2.00;;;26.00;54.90;;;;;;5054029;28;20041;-76
2022/08/11 16:10:32;;;;;;;5.55;1.95;;;26.10;55.20;;;;;;5040867;28;20044;-76
2022/08/11 16:18:41;;;;;;;3.83;2.10;;;26.00;56.70;;;;;;5036396;28;20131;-77
2022/08/11 16:21:11;;;;;;;4.97;2.03;;;26.00;56.00;;;;;;5034422;28;20045;-75
2022/08/11 16:23:43;;;;;;;4.75;2.85;;;26.00;56.00;;;;;;5029426;28;20053;-75
2022/08/11 16:26:12;;;;;;;5.80;1.80;;;26.00;56.20;;;;;;5041618;28;20063;-76
2022/08/11 16:28:43;;;;;;;3.40;1.60;;;25.90;56.50;;;;;;5059712;28;20052;-76
2022/08/11 16:31:11;;;;;;;2.50;1.60;;;25.90;56.50;;;;;;5059791;28;20033;-76
2022/08/11 16:33:41;;;;;;;3.88;1.90;;;25.90;56.40;;;;;;5045483;28;20511;-76
2022/08/11 16:38:56;;;;;;;4.28;1.75;;;25.80;56.90;;;;;;5066682;28;20045;-76
2022/08/11 16:47:02;;;;;;;3.95;2.00;;;25.60;56.00;;;;;;5040327;28;20052;-76
2022/08/11 16:49:32;;;;;;;7.75;4.40;;;25.60;56.40;;;;;;5058436;28;20041;-76
2022/08/11 16:52:02;;;;;;;5.32;2.05;;;25.50;57.00;;;;;;5041452;28;20067;-76
2022/08/11 16:54:31;;;;;;;5.40;2.47;;;25.50;56.90;;;;;;5057572;28;20041;-77
2022/08/11 16:59:12;;;;;;;4.53;2.13;;;25.40;57.50;;;;;;5059123;28;20044;-78
2022/08/11 16:59:52;;;;;;;4.70;2.10;;;25.40;57.10;;;;;;5074744;28;20040;-77
2022/08/11 17:13:36;;;;;;;7.70;2.50;;;25.10;57.20;;;;;;5042151;28;20052;-77
2022/08/11 17:16:10;;;;;;;4.75;2.13;;;24.90;57.60;;;;;;5058810;28;20080;-75
2022/08/11 17:18:58;;;;;;;4.15;2.00;;;24.90;57.50;;;;;;5059229;28;20041;-76
2022/08/11 17:21:28;;;;;;;5.47;3.22;;;24.80;57.60;;;;;;5057367;28;20083;-78
2022/08/11 17:23:58;;;;;;;10.52;2.50;;;24.70;58.10;;;;;;5057178;28;20389;-75
2022/08/11 17:26:53;;;;;;;4.55;2.95;;;24.60;59.10;;;;;;5058264;28;20095;-76
2022/08/11 17:29:20;;;;;;;5.57;2.90;;;24.50;58.70;;;;;;5064211;28;20040;-74
2022/08/11 17:37:21;;;;;;;5.15;2.20;;;24.20;60.00;;;;;;5077183;28;20044;-74
2022/08/11 17:39:50;;;;;;;3.90;2.22;;;24.10;60.10;;;;;;5059417;28;20374;-74
2022/08/11 17:50:37;;;;;;;12.13;6.93;;;23.60;64.60;;;;;;5056590;28;20041;-74
2022/08/11 18:01:23;;;;;;;;;;;23.00;70.90;;;;;;5040507;28;20140;-74
2022/08/11 18:03:53;;;;;;;10.45;6.43;;;22.90;71.90;;;;;;5057646;28;19921;-74
2022/08/11 18:06:21;;;;;;;15.48;7.65;;;22.60;72.80;;;;;;5039499;28;20049;-74
